Hurt, Virginia
Current Conditions -  °F | °C
As of 12:35 PM on Monday 24 Nov 2014 (Local Time) from K0V4 Reporting Station
Scattered Clouds Scattered Clouds  
Wind Chill: 73°   Ceiling: Unl
Heat Index: 73°   Visibility: 10mi
Dew Point: 58°   Wind: 13mph
Humidity: 59%   Direction: 200°SSW
Pressure: 29.7"   Gusts: 23mph
Location:  37.09°N, 79.3°W
Report Text: K0V4 241735Z AUTO 20011G20KT 10SM SCT035 23/14 A2970 RMK AO1 T02270142
Loading
Personal Weather Stations






























Interactive Weather Map New forecast layout! Learn more

10-Day Weather Forecast

Advertisements
Track Severe Weather on mobile